Ira, TX (79527)

7:28 AM CDT on October 23, 2014 (GMT -0500)
Winston | Change Station
CLOSE
Current Station
Airport
Location: Snyder,
Elevation: 2431 ft
Nearby Weather Stations

Elev 2431 ft 32.69 °N, 100.95 °W | Updated 13 minutes ago

Mostly Cloudy
Mostly Cloudy
56 °F
Feels Like 56 °F
N
5
Wind Variable Wind from SSW

Today
High -- | Low -- °F
--% Chance of Precip.
Yesterday
High -- | Low -- °F
Precip. -- in
7:54 AM 7:02 PM
Waning Crescent, 0% visible
Pressure 30.13 in
Visibility 10.0 miles
Clouds Mostly Cloudy 1200 ft
Dew Point 55 °F
Humidity 94%
Rainfall 0.00 in
Snow Depth Not available.
UV 0 out of 12
Pollen 5.90 out of 12
Air Quality Not available.
Flu Activity Sporadic
METAR KSNK 231215Z AUTO 21004KT 10SM BKN012 14/13 A3013 RMK AO2 T01360127

More Conditions Fewer Conditions

Pressure 30.13 in
Visibility 10.0 miles
Clouds Mostly Cloudy 1200 ft
Dew Point 55 °F
Humidity 94%
Rainfall 0.00 in
Snow Depth Not available.
UV 0 out of 12
Pollen 5.90 out of 12
Air Quality Not available.
Flu Activity Sporadic
METAR KSNK 231215Z AUTO 21004KT 10SM BKN012 14/13 A3013 RMK AO2 T01360127

More Conditions Fewer Conditions

10-Day Weather Forecast

Almanac

Astronomy

Oct. 23, 2014 Rise Set
Actual Time 7:54 AM CDT 7:02 PM CDT
Civil Twilight 7:29 AM CDT 7:27 PM CDT
Nautical Twilight 7:00 AM CDT 7:56 PM CDT
Astronomical Twilight 6:31 AM CDT 8:24 PM CDT
Moon 7:37 AM CDT 7:05 PM CDT
Length of Visible Light 11h 57m
Length of Day
11h 07m
Tomorrow will be 1m 51s shorter.
Waning Crescent, 0% of the Moon is Illuminated
Today
Waning Crescent
Oct 23
New
Oct 30
First Quarter
Nov 6
Full
Nov 14
Last Quarter

Today's Extremes

State Highs State Lows

Community

WunderPhotos

Upload Photos

1,764,211 photos uploaded!

WunderBlogs® & News

Nearby

Snow Depth

Station Depth Elevation
No new snow has been reported.

Earthquake Activity

City Distance Mag. Time & Date
No recent earthquake activity has been reported nearby.
Minimum magnitude displayed is 2.5.

Coastal Water Temperatures

Place Temperature
No Stations Reporting

Nearby Weather Stations